createdAt,value
2018-02-19T00:01:04.743Z,0.22
2018-02-19T00:02:11.528Z,0.18
2018-02-19T00:03:18.367Z,0.18
2018-02-19T00:04:25.091Z,0.16
2018-02-19T00:05:31.889Z,0.15
2018-02-19T00:06:38.620Z,0.13
2018-02-19T00:07:45.456Z,0.14
2018-02-19T00:08:52.172Z,0.11
2018-02-19T00:09:58.924Z,0.11
2018-02-19T00:11:05.668Z,0.11
2018-02-19T00:12:12.529Z,0.09
2018-02-19T00:13:19.276Z,0.08
2018-02-19T00:14:26.059Z,0.05
2018-02-19T00:15:32.789Z,0.04
2018-02-19T00:16:39.636Z,0.04
2018-02-19T00:17:46.362Z,0.02
2018-02-19T00:18:53.175Z,0.01
2018-02-19T00:20:00.133Z,0.00
2018-02-19T00:21:06.873Z,-0.02
2018-02-19T00:22:13.612Z,-0.04
2018-02-19T00:23:20.320Z,-0.06
2018-02-19T00:24:27.041Z,-0.06
2018-02-19T00:25:33.822Z,-0.07
2018-02-19T00:26:40.556Z,-0.08
2018-02-19T00:27:47.288Z,-0.10
2018-02-19T00:28:54.023Z,-0.09
2018-02-19T00:30:00.816Z,-0.12
2018-02-19T00:31:07.683Z,-0.12
2018-02-19T00:32:14.412Z,-0.13
2018-02-19T00:33:21.161Z,-0.15
2018-02-19T00:34:28.028Z,-0.16
2018-02-19T00:35:34.772Z,-0.17
2018-02-19T00:36:41.529Z,-0.17
2018-02-19T00:37:48.240Z,-0.19
2018-02-19T00:38:55.096Z,-0.21
2018-02-19T00:40:01.920Z,-0.22
2018-02-19T00:41:08.656Z,-0.22
2018-02-19T00:42:15.380Z,-0.23
2018-02-19T00:43:22.196Z,-0.26
2018-02-19T00:44:28.956Z,-0.27
2018-02-19T00:45:35.720Z,-0.29
2018-02-19T00:46:42.432Z,-0.29
2018-02-19T00:47:49.152Z,-0.30
2018-02-19T00:48:55.937Z,-0.31
2018-02-19T00:50:02.681Z,-0.32
2018-02-19T00:51:09.432Z,-0.34
2018-02-19T00:52:24.100Z,-0.35
2018-02-19T00:53:22.844Z,-0.35
2018-02-19T00:54:29.681Z,-0.36
2018-02-19T00:55:36.456Z,-0.36
2018-02-19T00:56:43.196Z,-0.38
2018-02-19T00:57:49.927Z,-0.39
2018-02-19T00:58:56.777Z,-0.40
2018-02-19T01:00:03.529Z,-0.41
2018-02-19T01:01:10.309Z,-0.41
2018-02-19T01:02:17.053Z,-0.42
2018-02-19T01:03:23.861Z,-0.43
2018-02-19T01:04:30.609Z,-0.45
2018-02-19T01:05:37.374Z,-0.46
2018-02-19T01:06:44.301Z,-0.46
2018-02-19T01:07:51.066Z,-0.48
2018-02-19T01:08:57.846Z,-0.47
2018-02-19T01:10:04.669Z,-0.49
2018-02-19T01:11:11.408Z,-0.49
2018-02-19T01:12:18.201Z,-0.51
2018-02-19T01:13:24.917Z,-0.52
2018-02-19T01:14:31.624Z,-0.53
2018-02-19T01:15:38.468Z,-0.54
2018-02-19T01:16:45.188Z,-0.56
2018-02-19T01:17:51.958Z,-0.55
2018-02-19T01:18:58.675Z,-0.55
2018-02-19T01:20:05.521Z,-0.56
2018-02-19T01:21:12.515Z,-0.57
2018-02-19T01:22:19.303Z,-0.59
2018-02-19T01:23:26.032Z,-0.58
2018-02-19T01:24:32.776Z,-0.59
2018-02-19T01:25:39.490Z,-0.60
2018-02-19T01:26:46.220Z,-0.61
2018-02-19T01:27:53.149Z,-0.62
2018-02-19T01:28:59.862Z,-0.62
2018-02-19T01:30:06.613Z,-0.64
2018-02-19T01:31:13.342Z,-0.64
2018-02-19T01:32:20.129Z,-0.63
2018-02-19T01:33:26.876Z,-0.67
2018-02-19T01:34:33.608Z,-0.66
2018-02-19T01:35:40.332Z,-0.65
2018-02-19T01:36:47.052Z,-0.67
2018-02-19T01:37:53.837Z,-0.69
2018-02-19T01:39:00.721Z,-0.70
2018-02-19T01:40:07.725Z,-0.71
2018-02-19T01:41:14.456Z,-0.71
2018-02-19T01:42:21.205Z,-0.70
2018-02-19T01:43:27.961Z,-0.71
2018-02-19T01:44:34.753Z,-0.71
2018-02-19T01:45:41.492Z,-0.73
2018-02-19T01:46:48.207Z,-0.73
2018-02-19T01:47:54.960Z,-0.74
2018-02-19T01:49:01.711Z,-0.75
2018-02-19T01:50:08.488Z,-0.76
2018-02-19T01:51:15.188Z,-0.76
2018-02-19T01:52:21.941Z,-0.77
2018-02-19T01:53:28.680Z,-0.79
2018-02-19T01:54:35.429Z,-0.81
2018-02-19T01:55:42.201Z,-0.80
2018-02-19T01:56:48.910Z,-0.81
2018-02-19T01:57:55.753Z,-0.82
2018-02-19T01:59:02.463Z,-0.84
2018-02-19T02:00:09.304Z,-0.83
2018-02-19T02:01:16.038Z,-0.84
2018-02-19T02:02:22.788Z,-0.85
2018-02-19T02:03:29.506Z,-0.85
2018-02-19T02:04:36.560Z,-0.85
2018-02-19T02:05:43.325Z,-0.88
2018-02-19T02:06:50.161Z,-0.87
2018-02-19T02:07:56.897Z,-0.89
2018-02-19T02:09:03.659Z,-0.90
2018-02-19T02:10:10.372Z,-0.89
2018-02-19T02:11:17.113Z,-0.89
2018-02-19T02:12:23.901Z,-0.90
2018-02-19T02:13:30.637Z,-0.92
2018-02-19T02:14:37.383Z,-0.92
2018-02-19T02:15:44.216Z,-0.93
2018-02-19T02:16:50.979Z,-0.93
2018-02-19T02:17:57.739Z,-0.94
2018-02-19T02:19:04.484Z,-0.95
2018-02-19T02:20:11.248Z,-0.96
2018-02-19T02:21:18.101Z,-0.96
2018-02-19T02:22:24.844Z,-0.96
2018-02-19T02:23:31.623Z,-0.97
2018-02-19T02:24:38.365Z,-0.98
2018-02-19T02:25:47.768Z,-0.97
2018-02-19T02:26:52.063Z,-0.98
2018-02-19T02:27:58.797Z,-0.98
2018-02-19T02:29:05.685Z,-0.98
2018-02-19T02:30:12.436Z,-0.99
2018-02-19T02:31:19.195Z,-0.98
2018-02-19T02:32:26.025Z,-0.99
2018-02-19T02:33:32.806Z,-0.99
2018-02-19T02:34:39.629Z,-1.01
2018-02-19T02:35:46.456Z,-1.00
2018-02-19T02:36:53.355Z,-1.00
2018-02-19T02:38:00.105Z,-1.01
2018-02-19T02:39:06.920Z,-1.01
2018-02-19T02:40:13.702Z,-1.01
2018-02-19T02:41:20.459Z,-1.02
2018-02-19T02:42:27.241Z,-1.02
2018-02-19T02:43:34.009Z,-1.04
2018-02-19T02:44:40.758Z,-1.02
2018-02-19T02:45:47.534Z,-1.03
2018-02-19T02:46:54.327Z,-1.03
2018-02-19T02:48:01.139Z,-1.03
2018-02-19T02:49:07.941Z,-1.02
2018-02-19T02:50:14.724Z,-1.03
2018-02-19T02:51:21.576Z,-1.04
2018-02-19T02:52:28.316Z,-1.05
2018-02-19T02:53:35.084Z,-1.05
2018-02-19T02:54:41.833Z,-1.05
2018-02-19T02:55:48.674Z,-1.03
2018-02-19T02:56:55.464Z,-1.06
2018-02-19T02:58:02.269Z,-1.03
2018-02-19T02:59:09.140Z,-1.05
2018-02-19T03:00:15.891Z,-1.05
2018-02-19T03:01:22.658Z,-1.05
2018-02-19T03:02:29.408Z,-1.03
2018-02-19T03:03:36.218Z,-1.02
2018-02-19T03:04:43.022Z,-1.03
2018-02-19T03:05:49.761Z,-1.05
2018-02-19T03:06:56.489Z,-1.05
2018-02-19T03:08:03.307Z,-1.05
2018-02-19T03:09:10.084Z,-1.05
2018-02-19T03:10:16.869Z,-1.02
2018-02-19T03:11:23.963Z,-1.04
2018-02-19T03:12:30.708Z,-1.02
2018-02-19T03:13:37.505Z,-1.03
2018-02-19T03:14:44.261Z,-1.04
2018-02-19T03:15:50.995Z,-1.05
2018-02-19T03:16:57.744Z,-1.04
2018-02-19T03:18:04.452Z,-1.04
2018-02-19T03:19:11.283Z,-1.04
2018-02-19T03:20:18.037Z,-1.03
2018-02-19T03:21:24.773Z,-1.04
2018-02-19T03:22:31.528Z,-1.04
2018-02-19T03:23:38.371Z,-1.03
2018-02-19T03:24:45.121Z,-1.03
2018-02-19T03:25:51.898Z,-1.04
2018-02-19T03:26:58.600Z,-1.02
2018-02-19T03:28:05.337Z,-1.02
2018-02-19T03:29:12.135Z,-1.03
2018-02-19T03:30:18.888Z,-1.03
2018-02-19T03:31:25.797Z,-1.02
2018-02-19T03:32:32.612Z,-1.03
2018-02-19T03:33:39.376Z,-1.03
2018-02-19T03:34:46.104Z,-1.03
2018-02-19T03:35:52.855Z,-1.03
2018-02-19T03:36:59.701Z,-1.02
2018-02-19T03:38:06.532Z,-1.01
2018-02-19T03:39:13.256Z,-1.02
2018-02-19T03:40:19.990Z,-1.01
2018-02-19T03:41:26.819Z,-1.01
2018-02-19T03:42:33.540Z,-1.01
2018-02-19T03:43:40.276Z,-1.02
2018-02-19T03:44:47.008Z,-1.01
2018-02-19T03:45:53.754Z,-0.99
2018-02-19T03:47:00.567Z,-0.99
2018-02-19T03:48:07.312Z,-1.01
2018-02-19T03:49:14.060Z,-1.02
2018-02-19T03:50:20.792Z,-0.99
2018-02-19T03:51:27.524Z,-0.99
2018-02-19T03:52:34.319Z,-0.99
2018-02-19T03:53:41.041Z,-0.99
2018-02-19T03:54:47.782Z,-1.00
2018-02-19T03:55:54.495Z,-0.99
2018-02-19T03:57:01.253Z,-0.97
2018-02-19T03:58:08.081Z,-0.98
2018-02-19T03:59:14.791Z,-0.97
2018-02-19T04:00:21.537Z,-0.98
2018-02-19T04:01:28.239Z,-0.95
2018-02-19T04:02:34.987Z,-0.96
2018-02-19T04:03:41.687Z,-0.96
2018-02-19T04:04:48.613Z,-0.96
2018-02-19T04:05:55.353Z,-0.97
2018-02-19T04:07:02.088Z,-0.97
2018-02-19T04:08:08.845Z,-0.96
2018-02-19T04:09:15.634Z,-0.96
2018-02-19T04:10:22.352Z,-0.95
2018-02-19T04:11:29.084Z,-0.94
2018-02-19T04:12:35.919Z,-0.95
2018-02-19T04:13:42.753Z,-0.94
2018-02-19T04:14:49.458Z,-0.94
2018-02-19T04:15:56.176Z,-0.92
2018-02-19T04:17:02.911Z,-0.94
2018-02-19T04:18:09.676Z,-0.94
2018-02-19T04:19:16.492Z,-0.96
2018-02-19T04:20:23.236Z,-0.93
2018-02-19T04:21:29.944Z,-0.94
2018-02-19T04:22:36.702Z,-0.92
2018-02-19T04:23:43.437Z,-0.91
2018-02-19T04:24:50.232Z,-0.92
2018-02-19T04:25:56.976Z,-0.92
2018-02-19T04:27:03.731Z,-0.90
2018-02-19T04:28:10.488Z,-0.92
2018-02-19T04:29:17.232Z,-0.91
2018-02-19T04:30:23.962Z,-0.91
2018-02-19T04:31:30.653Z,-0.90
2018-02-19T04:32:37.416Z,-0.89
2018-02-19T04:33:44.164Z,-0.89
2018-02-19T04:34:50.923Z,-0.88
2018-02-19T04:35:57.709Z,-0.89
2018-02-19T04:37:04.412Z,-0.89
2018-02-19T04:38:11.152Z,-0.89
2018-02-19T04:39:17.937Z,-0.87
2018-02-19T04:40:24.657Z,-0.87
2018-02-19T04:41:31.445Z,-0.88
2018-02-19T04:42:38.145Z,-0.87
2018-02-19T04:43:44.894Z,-0.86
2018-02-19T04:44:51.733Z,-0.85
2018-02-19T04:45:58.564Z,-0.85
2018-02-19T04:47:05.352Z,-0.86
2018-02-19T04:48:12.156Z,-0.85
2018-02-19T04:49:18.889Z,-0.85
2018-02-19T04:50:25.681Z,-0.84
2018-02-19T04:51:32.422Z,-0.84
2018-02-19T04:52:39.165Z,-0.85
2018-02-19T04:53:45.929Z,-0.84
2018-02-19T04:54:52.801Z,-0.84
2018-02-19T04:55:59.559Z,-0.83
2018-02-19T04:57:06.314Z,-0.83
2018-02-19T04:58:13.217Z,-0.81
2018-02-19T04:59:19.958Z,-0.82
2018-02-19T05:00:26.770Z,-0.82
2018-02-19T05:01:33.502Z,-0.81
2018-02-19T05:02:40.320Z,-0.79
2018-02-19T05:03:47.033Z,-0.81
2018-02-19T05:04:53.740Z,-0.78
2018-02-19T05:06:00.525Z,-0.78
2018-02-19T05:07:07.245Z,-0.79
2018-02-19T05:08:13.956Z,-0.79
2018-02-19T05:09:20.769Z,-0.79
2018-02-19T05:10:27.521Z,-0.78
2018-02-19T05:11:34.280Z,-0.77
2018-02-19T05:12:41.058Z,-0.77
2018-02-19T05:13:47.960Z,-0.76
2018-02-19T05:14:54.724Z,-0.77
2018-02-19T05:16:01.489Z,-0.76
2018-02-19T05:17:08.354Z,-0.77
2018-02-19T05:18:15.112Z,-0.75
2018-02-19T05:19:21.864Z,-0.75
2018-02-19T05:20:28.608Z,-0.75
2018-02-19T05:21:35.472Z,-0.75
2018-02-19T05:22:42.221Z,-0.73
2018-02-19T05:23:48.981Z,-0.73
2018-02-19T05:24:55.816Z,-0.74
2018-02-19T05:26:02.577Z,-0.72
2018-02-19T05:27:09.376Z,-0.73
2018-02-19T05:28:16.122Z,-0.73
2018-02-19T05:29:22.882Z,-0.72
2018-02-19T05:30:29.797Z,-0.72
2018-02-19T05:31:36.573Z,-0.72
2018-02-19T05:32:43.334Z,-0.72
2018-02-19T05:33:50.176Z,-0.71
2018-02-19T05:34:56.936Z,-0.70
2018-02-19T05:36:03.708Z,-0.71
2018-02-19T05:37:10.468Z,-0.70
2018-02-19T05:38:17.292Z,-0.69
2018-02-19T05:39:24.018Z,-0.70
2018-02-19T05:40:30.810Z,-0.69
2018-02-19T05:41:37.581Z,-0.68
2018-02-19T05:42:44.416Z,-0.69
2018-02-19T05:43:51.237Z,-0.67
2018-02-19T05:44:57.999Z,-0.69
2018-02-19T05:46:05.056Z,-0.68
2018-02-19T05:47:11.767Z,-0.66
2018-02-19T05:48:18.800Z,-0.66
2018-02-19T05:49:25.578Z,-0.65
2018-02-19T05:50:32.621Z,-0.66
2018-02-19T05:51:39.371Z,-0.64
2018-02-19T05:52:46.357Z,-0.63
2018-02-19T05:53:52.973Z,-0.64
2018-02-19T05:54:59.745Z,-0.63
2018-02-19T05:56:06.538Z,-0.64
2018-02-19T05:57:13.415Z,-0.62
2018-02-19T05:58:20.192Z,-0.61
2018-02-19T05:59:26.969Z,-0.60
2018-02-19T06:00:33.724Z,-0.61
2018-02-19T06:01:40.548Z,-0.61
2018-02-19T06:02:47.268Z,-0.61
2018-02-19T06:03:54.036Z,-0.61
2018-02-19T06:05:00.976Z,-0.59
2018-02-19T06:06:07.741Z,-0.59
2018-02-19T06:07:14.580Z,-0.59
2018-02-19T06:08:21.432Z,-0.59
2018-02-19T06:09:28.226Z,-0.58
2018-02-19T06:10:34.988Z,-0.57
2018-02-19T06:11:41.852Z,-0.56
2018-02-19T06:12:48.649Z,-0.57
2018-02-19T06:13:55.407Z,-0.57
2018-02-19T06:15:02.270Z,-0.56
2018-02-19T06:16:09.023Z,-0.56
2018-02-19T06:17:15.791Z,-0.56
2018-02-19T06:18:22.533Z,-0.55
2018-02-19T06:19:29.594Z,-0.55
2018-02-19T06:20:36.340Z,-0.54
2018-02-19T06:21:43.149Z,-0.55
2018-02-19T06:22:49.909Z,-0.54
2018-02-19T06:23:56.659Z,-0.52
2018-02-19T06:25:03.649Z,-0.52
2018-02-19T06:26:10.399Z,-0.53
2018-02-19T06:27:17.144Z,-0.53
2018-02-19T06:28:23.944Z,-0.50
2018-02-19T06:29:30.773Z,-0.50
2018-02-19T06:30:37.552Z,-0.51
2018-02-19T06:31:44.384Z,-0.51
2018-02-19T06:32:51.152Z,-0.49
2018-02-19T06:33:57.900Z,-0.49
2018-02-19T06:35:04.673Z,-0.48
2018-02-19T06:36:11.516Z,-0.48
2018-02-19T06:37:18.273Z,-0.47
2018-02-19T06:38:25.033Z,-0.48
2018-02-19T06:39:31.784Z,-0.47
2018-02-19T06:40:38.595Z,-0.46
2018-02-19T06:41:45.385Z,-0.46
2018-02-19T06:42:52.121Z,-0.45
2018-02-19T06:43:58.868Z,-0.44
2018-02-19T06:45:05.716Z,-0.44
2018-02-19T06:46:12.452Z,-0.45
2018-02-19T06:47:19.232Z,-0.42
2018-02-19T06:48:25.978Z,-0.42
2018-02-19T06:49:32.816Z,-0.42
2018-02-19T06:50:39.577Z,-0.41
2018-02-19T06:51:46.602Z,-0.40
2018-02-19T06:52:53.356Z,-0.41
2018-02-19T06:54:00.141Z,-0.40
2018-02-19T06:55:06.869Z,-0.40
2018-02-19T06:56:13.717Z,-0.39
2018-02-19T06:57:20.484Z,-0.39
2018-02-19T06:58:27.393Z,-0.39
2018-02-19T06:59:34.155Z,-0.38
2018-02-19T07:00:40.872Z,-0.38
2018-02-19T07:01:47.617Z,-0.38
2018-02-19T07:02:54.384Z,-0.37
2018-02-19T07:04:01.129Z,-0.35
2018-02-19T07:05:07.924Z,-0.36
2018-02-19T07:06:14.690Z,-0.37
2018-02-19T07:07:21.461Z,-0.35
2018-02-19T07:08:28.229Z,-0.36
2018-02-19T07:09:35.020Z,-0.35
2018-02-19T07:10:41.740Z,-0.36
2018-02-19T07:11:48.604Z,-0.35
2018-02-19T07:12:55.472Z,-0.34
2018-02-19T07:14:02.250Z,-0.33
2018-02-19T07:15:09.001Z,-0.33
2018-02-19T07:16:15.724Z,-0.32
2018-02-19T07:17:22.561Z,-0.32
2018-02-19T07:18:29.320Z,-0.31
2018-02-19T07:19:36.105Z,-0.32
2018-02-19T07:20:42.829Z,-0.32
2018-02-19T07:21:49.693Z,-0.31
2018-02-19T07:22:56.544Z,-0.30
2018-02-19T07:24:03.606Z,-0.29
2018-02-19T07:25:10.409Z,-0.29
2018-02-19T07:26:17.378Z,-0.30
2018-02-19T07:27:24.140Z,-0.27
2018-02-19T07:28:30.920Z,-0.27
2018-02-19T07:29:37.764Z,-0.27
2018-02-19T07:30:44.510Z,-0.27
2018-02-19T07:31:51.275Z,-0.27
2018-02-19T07:32:57.995Z,-0.26
2018-02-19T07:34:04.926Z,-0.26
2018-02-19T07:35:11.692Z,-0.26
2018-02-19T07:36:18.440Z,-0.25
2018-02-19T07:37:25.290Z,-0.26
2018-02-19T07:38:32.058Z,-0.24
2018-02-19T07:39:38.829Z,-0.24
2018-02-19T07:40:45.739Z,-0.22
2018-02-19T07:41:52.504Z,-0.22
2018-02-19T07:42:59.250Z,-0.22
2018-02-19T07:44:05.989Z,-0.22
2018-02-19T07:45:12.968Z,-0.22
2018-02-19T07:46:19.717Z,-0.20
2018-02-19T07:47:26.463Z,-0.19
2018-02-19T07:48:33.365Z,-0.20
2018-02-19T07:49:40.148Z,-0.19
2018-02-19T07:50:46.913Z,-0.18
2018-02-19T07:51:53.726Z,-0.18
2018-02-19T07:53:00.457Z,-0.16
2018-02-19T07:54:07.222Z,-0.17
2018-02-19T07:55:13.944Z,-0.16
2018-02-19T07:56:20.788Z,-0.16
2018-02-19T07:57:27.524Z,-0.15
2018-02-19T07:58:34.252Z,-0.14
2018-02-19T07:59:40.998Z,-0.14
2018-02-19T08:00:47.722Z,-0.14
2018-02-19T08:01:54.526Z,-0.13
2018-02-19T08:03:01.337Z,-0.13
2018-02-19T08:04:08.173Z,-0.12
2018-02-19T08:05:14.916Z,-0.11
2018-02-19T08:06:21.672Z,-0.10
2018-02-19T08:07:28.675Z,-0.11
2018-02-19T08:08:35.395Z,-0.09
2018-02-19T08:09:42.148Z,-0.09
2018-02-19T08:10:48.905Z,-0.11
2018-02-19T08:11:55.647Z,-0.10
2018-02-19T08:13:02.432Z,-0.07
2018-02-19T08:14:09.173Z,-0.07
2018-02-19T08:15:15.943Z,-0.07
2018-02-19T08:16:22.666Z,-0.06
2018-02-19T08:17:29.560Z,-0.04
2018-02-19T08:18:36.325Z,-0.04
2018-02-19T08:19:43.055Z,-0.03
2018-02-19T08:20:49.797Z,-0.02
2018-02-19T08:21:56.665Z,-0.03
2018-02-19T08:23:03.400Z,-0.01
2018-02-19T08:24:10.132Z,-0.01
2018-02-19T08:25:16.846Z,-0.02
2018-02-19T08:26:23.636Z,0.01
2018-02-19T08:27:30.429Z,0.01
2018-02-19T08:28:37.169Z,0.03
2018-02-19T08:29:43.923Z,0.03
2018-02-19T08:30:50.640Z,0.04
2018-02-19T08:31:57.339Z,0.05
2018-02-19T08:33:04.268Z,0.05
2018-02-19T08:34:10.980Z,0.07
2018-02-19T08:35:17.725Z,0.07
2018-02-19T08:36:24.416Z,0.08
2018-02-19T08:37:31.107Z,0.08
2018-02-19T08:38:37.925Z,0.10
2018-02-19T08:39:44.760Z,0.11
2018-02-19T08:40:51.552Z,0.10
2018-02-19T08:41:58.351Z,0.11
2018-02-19T08:43:05.091Z,0.12
2018-02-19T08:44:11.832Z,0.13
2018-02-19T08:45:18.538Z,0.14
2018-02-19T08:46:25.297Z,0.15
2018-02-19T08:47:32.440Z,0.15
2018-02-19T08:48:39.076Z,0.17
2018-02-19T08:49:45.891Z,0.19
2018-02-19T08:50:52.693Z,0.19
2018-02-19T08:51:59.743Z,0.20
2018-02-19T08:53:06.578Z,0.22
2018-02-19T08:54:13.328Z,0.22
2018-02-19T08:55:20.143Z,0.21
2018-02-19T08:56:26.877Z,0.23
2018-02-19T08:57:33.646Z,0.24
2018-02-19T08:58:40.667Z,0.24
2018-02-19T08:59:47.407Z,0.25
2018-02-19T09:00:54.182Z,0.25
2018-02-19T09:02:00.915Z,0.26
2018-02-19T09:03:07.753Z,0.29
2018-02-19T09:04:14.492Z,0.30
2018-02-19T09:05:21.232Z,0.31
2018-02-19T09:06:27.978Z,0.31
2018-02-19T09:07:34.809Z,0.32
2018-02-19T09:08:41.548Z,0.34
2018-02-19T09:09:48.273Z,0.36
2018-02-19T09:10:55.032Z,0.35
2018-02-19T09:12:01.879Z,0.37
2018-02-19T09:13:08.956Z,0.38
2018-02-19T09:14:15.820Z,0.38
2018-02-19T09:15:22.571Z,0.39
2018-02-19T09:16:29.309Z,0.42
2018-02-19T09:17:36.009Z,0.40
2018-02-19T09:18:42.837Z,0.42
2018-02-19T09:19:49.547Z,0.44
2018-02-19T09:20:56.326Z,0.44
2018-02-19T09:22:03.088Z,0.44
2018-02-19T09:23:09.832Z,0.46
2018-02-19T09:24:16.621Z,0.47
2018-02-19T09:25:23.358Z,0.50
2018-02-19T09:26:30.140Z,0.50
2018-02-19T09:27:36.889Z,0.50
2018-02-19T09:28:43.614Z,0.52
2018-02-19T09:29:50.484Z,0.53
2018-02-19T09:30:57.254Z,0.55
2018-02-19T09:32:03.996Z,0.55
2018-02-19T09:33:10.737Z,0.56
2018-02-19T09:34:17.539Z,0.59
2018-02-19T09:35:24.298Z,0.58
2018-02-19T09:36:31.701Z,0.58
2018-02-19T09:37:38.029Z,0.60
2018-02-19T09:38:44.877Z,0.62
2018-02-19T09:39:51.827Z,0.63
2018-02-19T09:40:58.957Z,0.66
2018-02-19T09:42:05.687Z,0.67
2018-02-19T09:43:12.418Z,0.68
2018-02-19T09:44:19.184Z,0.70
2018-02-19T09:45:26.048Z,0.70
2018-02-19T09:46:32.803Z,0.72
2018-02-19T09:47:39.601Z,0.74
2018-02-19T09:48:46.341Z,0.75
2018-02-19T09:49:53.178Z,0.76
2018-02-19T09:50:59.897Z,0.77
2018-02-19T09:52:06.628Z,0.79
2018-02-19T09:53:13.393Z,0.80
2018-02-19T09:54:20.104Z,0.82
2018-02-19T09:55:27.280Z,0.82
2018-02-19T09:56:34.244Z,0.84
2018-02-19T09:57:41.117Z,0.86
2018-02-19T09:58:47.960Z,0.87
2018-02-19T09:59:54.692Z,0.89
2018-02-19T10:01:01.677Z,0.89
2018-02-19T10:02:08.532Z,0.91
2018-02-19T10:03:15.345Z,0.93
2018-02-19T10:04:22.235Z,0.91
2018-02-19T10:05:29.254Z,0.94
2018-02-19T10:06:36.033Z,0.96
2018-02-19T10:07:42.780Z,0.97
2018-02-19T10:08:49.585Z,0.98
2018-02-19T10:09:56.328Z,0.99
2018-02-19T10:11:03.148Z,1.00
2018-02-19T10:12:09.875Z,1.02
2018-02-19T10:13:16.955Z,1.03
2018-02-19T10:14:23.720Z,1.03
2018-02-19T10:15:30.533Z,1.05
2018-02-19T10:16:37.376Z,1.06
2018-02-19T10:17:44.108Z,1.08
2018-02-19T10:18:50.839Z,1.10
2018-02-19T10:19:57.577Z,1.11
2018-02-19T10:21:04.304Z,1.12
2018-02-19T10:22:11.162Z,1.12
2018-02-19T10:23:17.925Z,1.13
2018-02-19T10:24:24.700Z,1.15
2018-02-19T10:25:31.399Z,1.16
2018-02-19T10:26:38.429Z,1.18
2018-02-19T10:27:45.185Z,1.19
2018-02-19T10:28:51.948Z,1.20
2018-02-19T10:29:58.700Z,1.22
2018-02-19T10:31:05.437Z,1.23
2018-02-19T10:32:12.187Z,1.24
2018-02-19T10:33:18.920Z,1.26
2018-02-19T10:34:25.771Z,1.27
2018-02-19T10:35:32.492Z,1.28
2018-02-19T10:36:39.256Z,1.31
2018-02-19T10:37:46.005Z,1.31
2018-02-19T10:38:52.736Z,1.32
2018-02-19T10:39:59.516Z,1.34
2018-02-19T10:41:06.491Z,1.34
2018-02-19T10:42:13.320Z,1.35
2018-02-19T10:43:20.148Z,1.37
2018-02-19T10:44:26.947Z,1.38
2018-02-19T10:45:33.791Z,1.38
2018-02-19T10:46:40.552Z,1.39
2018-02-19T10:47:47.280Z,1.43
2018-02-19T10:48:54.016Z,1.44
2018-02-19T10:50:00.734Z,1.44
2018-02-19T10:51:07.520Z,1.45
2018-02-19T10:52:14.353Z,1.46
2018-02-19T10:53:21.084Z,1.47
2018-02-19T10:54:27.803Z,1.48
2018-02-19T10:55:34.623Z,1.49
2018-02-19T10:56:41.356Z,1.50
2018-02-19T10:57:48.094Z,1.54
2018-02-19T10:58:54.822Z,1.54
2018-02-19T11:00:01.662Z,1.54
2018-02-19T11:01:08.485Z,1.56
2018-02-19T11:02:15.179Z,1.58
2018-02-19T11:03:21.947Z,1.58
2018-02-19T11:04:28.819Z,1.59
2018-02-19T11:05:35.588Z,1.61
2018-02-19T11:06:42.340Z,1.62
2018-02-19T11:07:49.067Z,1.63
2018-02-19T11:08:55.796Z,1.65
2018-02-19T11:10:02.865Z,1.66
2018-02-19T11:11:09.686Z,1.67
2018-02-19T11:12:16.424Z,1.68
2018-02-19T11:13:23.236Z,1.70
2018-02-19T11:14:29.935Z,1.70
2018-02-19T11:15:36.766Z,1.71
2018-02-19T11:16:43.508Z,1.73
2018-02-19T11:17:50.273Z,1.75
2018-02-19T11:18:57.016Z,1.75
2018-02-19T11:20:03.828Z,1.76
2018-02-19T11:21:10.547Z,1.78
2018-02-19T11:22:17.285Z,1.77
2018-02-19T11:23:24.033Z,1.80
2018-02-19T11:24:30.722Z,1.80
2018-02-19T11:25:37.412Z,1.83
2018-02-19T11:26:44.109Z,1.84
2018-02-19T11:27:50.836Z,1.84
2018-02-19T11:28:57.576Z,1.86
2018-02-19T11:30:04.324Z,1.88
2018-02-19T11:31:11.029Z,1.89
2018-02-19T11:32:17.752Z,1.92
2018-02-19T11:33:24.504Z,1.93
2018-02-19T11:34:31.275Z,1.96
2018-02-19T11:35:38.011Z,1.98
2018-02-19T11:36:44.752Z,2.00
2018-02-19T11:37:51.581Z,2.02
2018-02-19T11:38:58.317Z,2.03
2018-02-19T11:40:05.045Z,2.05
2018-02-19T11:41:11.785Z,2.05
2018-02-19T11:42:18.513Z,2.07
2018-02-19T11:43:25.268Z,2.08
2018-02-19T11:44:32.040Z,2.08
2018-02-19T11:45:38.774Z,2.10
2018-02-19T11:46:45.507Z,2.11
2018-02-19T11:47:52.333Z,2.12
2018-02-19T11:48:59.040Z,2.12
2018-02-19T11:50:05.788Z,2.13
2018-02-19T11:51:12.525Z,2.16
2018-02-19T11:52:19.251Z,2.16
2018-02-19T11:53:25.953Z,2.17
2018-02-19T11:54:32.733Z,2.18
2018-02-19T11:55:39.507Z,2.19
2018-02-19T11:56:46.272Z,2.20
2018-02-19T11:57:53.157Z,2.22
2018-02-19T11:58:59.882Z,2.22
2018-02-19T12:00:06.620Z,2.25
2018-02-19T12:01:13.381Z,2.26
2018-02-19T12:02:20.105Z,2.25
2018-02-19T12:03:26.924Z,2.26
2018-02-19T12:04:33.628Z,2.26
2018-02-19T12:05:40.391Z,2.28
2018-02-19T12:06:47.136Z,2.30
2018-02-19T12:07:53.869Z,2.32
2018-02-19T12:09:00.651Z,2.32
2018-02-19T12:10:07.681Z,2.34
2018-02-19T12:11:14.468Z,2.33
2018-02-19T12:12:21.207Z,2.36
2018-02-19T12:13:27.963Z,2.36
2018-02-19T12:14:34.692Z,2.39
2018-02-19T12:15:41.536Z,2.39
2018-02-19T12:16:48.292Z,2.42
2018-02-19T12:17:55.044Z,2.42
2018-02-19T12:19:01.816Z,2.44
2018-02-19T12:20:08.619Z,2.45
2018-02-19T12:21:15.347Z,2.47
2018-02-19T12:22:22.149Z,2.46
2018-02-19T12:23:28.877Z,2.49
2018-02-19T12:24:35.688Z,2.50
2018-02-19T12:25:42.384Z,2.50
2018-02-19T12:26:49.135Z,2.53
2018-02-19T12:27:55.896Z,2.54
2018-02-19T12:29:02.755Z,2.55
2018-02-19T12:30:09.502Z,2.56
2018-02-19T12:31:16.284Z,2.58
2018-02-19T12:32:23.051Z,2.60
2018-02-19T12:33:29.925Z,2.60
2018-02-19T12:34:36.735Z,2.60
2018-02-19T12:35:43.468Z,2.63
2018-02-19T12:36:50.233Z,2.64
2018-02-19T12:37:56.979Z,2.66
2018-02-19T12:39:03.747Z,2.68
2018-02-19T12:40:10.491Z,2.69
2018-02-19T12:41:17.330Z,2.71
2018-02-19T12:42:24.089Z,2.72
2018-02-19T12:43:30.916Z,2.73
2018-02-19T12:44:37.732Z,2.74
2018-02-19T12:45:44.445Z,2.74
2018-02-19T12:46:51.180Z,2.77
2018-02-19T12:47:57.913Z,2.79
2018-02-19T12:49:04.689Z,2.80
2018-02-19T12:50:11.588Z,2.82
2018-02-19T12:51:18.364Z,2.82
2018-02-19T12:52:25.341Z,2.85
2018-02-19T12:53:32.101Z,2.87
2018-02-19T12:54:38.857Z,2.87
2018-02-19T12:55:45.747Z,2.88
2018-02-19T12:56:52.502Z,2.88
2018-02-19T12:57:59.357Z,2.90
2018-02-19T12:59:06.152Z,2.93
2018-02-19T13:00:12.899Z,2.95
2018-02-19T13:01:19.637Z,2.96
2018-02-19T13:02:26.634Z,2.97
2018-02-19T13:03:33.396Z,2.99
2018-02-19T13:04:40.108Z,3.01
2018-02-19T13:05:46.837Z,3.01
2018-02-19T13:06:53.641Z,3.03
2018-02-19T13:08:00.402Z,3.05
2018-02-19T13:09:07.180Z,3.05
2018-02-19T13:10:13.927Z,3.08
2018-02-19T13:11:20.723Z,3.08
2018-02-19T13:12:27.469Z,3.09
2018-02-19T13:13:34.305Z,3.12
2018-02-19T13:14:41.141Z,3.13
2018-02-19T13:15:47.916Z,3.13
2018-02-19T13:16:54.701Z,3.15
2018-02-19T13:18:01.659Z,3.16
2018-02-19T13:19:08.419Z,3.17
2018-02-19T13:20:15.167Z,3.21
2018-02-19T13:21:22.020Z,3.22
2018-02-19T13:22:28.786Z,3.24
2018-02-19T13:23:35.556Z,3.25
2018-02-19T13:24:42.426Z,3.28
2018-02-19T13:25:49.185Z,3.29
2018-02-19T13:26:55.967Z,3.29
2018-02-19T13:28:02.816Z,3.33
2018-02-19T13:29:09.593Z,3.34
2018-02-19T13:30:16.625Z,3.34
2018-02-19T13:31:23.375Z,3.35
2018-02-19T13:32:30.156Z,3.36
2018-02-19T13:33:36.909Z,3.38
2018-02-19T13:34:43.682Z,3.39
2018-02-19T13:35:50.436Z,3.40
2018-02-19T13:36:57.393Z,3.41
2018-02-19T13:38:04.153Z,3.43
2018-02-19T13:39:11.327Z,3.44
2018-02-19T13:40:18.381Z,3.45
2018-02-19T13:41:25.127Z,3.48
2018-02-19T13:42:31.872Z,3.50
2018-02-19T13:43:38.658Z,3.49
2018-02-19T13:44:45.476Z,3.52
2018-02-19T13:45:52.262Z,3.53
2018-02-19T13:46:59.025Z,3.54
2018-02-19T13:48:05.920Z,3.54
2018-02-19T13:49:12.732Z,3.56
2018-02-19T13:50:19.788Z,3.57
2018-02-19T13:51:26.584Z,3.59
2018-02-19T13:52:33.459Z,3.60
2018-02-19T13:53:40.232Z,3.61
2018-02-19T13:54:47.061Z,3.63
2018-02-19T13:55:53.894Z,3.65
2018-02-19T13:57:00.664Z,3.66
2018-02-19T13:58:07.457Z,3.66
2018-02-19T13:59:14.296Z,3.68
2018-02-19T14:00:21.076Z,3.69
2018-02-19T14:01:27.867Z,3.70
2018-02-19T14:02:34.715Z,3.71
2018-02-19T14:03:41.479Z,3.72
2018-02-19T14:04:48.582Z,3.72
2018-02-19T14:05:55.381Z,3.73
2018-02-19T14:07:02.104Z,3.74
2018-02-19T14:08:08.918Z,3.76
2018-02-19T14:09:15.701Z,3.77
2018-02-19T14:10:22.468Z,3.77
2018-02-19T14:11:29.389Z,3.80
2018-02-19T14:12:36.300Z,3.79
2018-02-19T14:13:43.086Z,3.80
2018-02-19T14:14:49.837Z,3.81
2018-02-19T14:15:56.628Z,3.81
2018-02-19T14:17:03.355Z,3.84
2018-02-19T14:18:10.190Z,3.84
2018-02-19T14:19:16.932Z,3.86
2018-02-19T14:20:23.700Z,3.86
2018-02-19T14:21:30.563Z,3.88
2018-02-19T14:22:37.318Z,3.88
2018-02-19T14:23:44.147Z,3.90
2018-02-19T14:24:50.994Z,3.90
2018-02-19T14:25:57.780Z,3.91
2018-02-19T14:27:04.547Z,3.92
2018-02-19T14:28:11.413Z,3.92
2018-02-19T14:29:18.200Z,3.93
2018-02-19T14:30:24.976Z,3.94
2018-02-19T14:31:31.852Z,3.95
2018-02-19T14:32:38.612Z,3.94